sensor_id;sensor_type;location;lat;lon;timestamp;temperature;humidity
23475;DHT22;11910;52.086;21.066;2023-04-01T00:00:52;9.90;99.90
23475;DHT22;11910;52.086;21.066;2023-04-01T00:03:19;9.90;99.90
23475;DHT22;11910;52.086;21.066;2023-04-01T00:05:45;9.90;99.90
23475;DHT22;11910;52.086;21.066;2023-04-01T00:08:11;10.00;99.90
23475;DHT22;11910;52.086;21.066;2023-04-01T00:10:37;9.90;99.90
23475;DHT22;11910;52.086;21.066;2023-04-01T00:13:02;9.80;99.90
23475;DHT22;11910;52.086;21.066;2023-04-01T00:15:28;9.90;99.90
23475;DHT22;11910;52.086;21.066;2023-04-01T00:17:54;9.80;99.90
23475;DHT22;11910;52.086;21.066;2023-04-01T00:20:20;9.70;99.90
23475;DHT22;11910;52.086;21.066;2023-04-01T00:22:46;9.70;99.90
23475;DHT22;11910;52.086;21.066;2023-04-01T00:25:12;9.70;99.90
23475;DHT22;11910;52.086;21.066;2023-04-01T00:27:38;9.60;99.90
23475;DHT22;11910;52.086;21.066;2023-04-01T00:30:04;9.60;99.90
23475;DHT22;11910;52.086;21.066;2023-04-01T00:32:30;9.70;99.90
23475;DHT22;11910;52.086;21.066;2023-04-01T00:34:56;9.70;99.90
23475;DHT22;11910;52.086;21.066;2023-04-01T00:37:24;9.80;99.90
23475;DHT22;11910;52.086;21.066;2023-04-01T00:39:50;9.70;99.90
23475;DHT22;11910;52.086;21.066;2023-04-01T00:42:15;9.60;99.90
23475;DHT22;11910;52.086;21.066;2023-04-01T00:44:41;9.60;99.90
23475;DHT22;11910;52.086;21.066;2023-04-01T00:47:07;9.60;99.90
23475;DHT22;11910;52.086;21.066;2023-04-01T00:49:39;9.50;99.90
23475;DHT22;11910;52.086;21.066;2023-04-01T00:52:08;9.50;99.90
23475;DHT22;11910;52.086;21.066;2023-04-01T00:54:36;9.40;99.90
23475;DHT22;11910;52.086;21.066;2023-04-01T00:57:07;9.30;99.90
23475;DHT22;11910;52.086;21.066;2023-04-01T00:59:39;9.30;99.90
23475;DHT22;11910;52.086;21.066;2023-04-01T01:02:09;9.20;99.90
23475;DHT22;11910;52.086;21.066;2023-04-01T01:04:36;9.20;99.90
23475;DHT22;11910;52.086;21.066;2023-04-01T01:26:53;9.30;99.90
23475;DHT22;11910;52.086;21.066;2023-04-01T01:29:45;9.30;99.90
23475;DHT22;11910;52.086;21.066;2023-04-01T01:33:17;9.40;99.90
23475;DHT22;11910;52.086;21.066;2023-04-01T01:35:45;9.40;99.90
23475;DHT22;11910;52.086;21.066;2023-04-01T01:38:15;9.50;99.90
23475;DHT22;11910;52.086;21.066;2023-04-01T01:40:44;9.40;99.90
23475;DHT22;11910;52.086;21.066;2023-04-01T01:43:14;9.40;99.90
23475;DHT22;11910;52.086;21.066;2023-04-01T01:45:44;9.40;99.90
23475;DHT22;11910;52.086;21.066;2023-04-01T01:48:12;9.40;99.90
23475;DHT22;11910;52.086;21.066;2023-04-01T01:50:38;9.40;99.90
23475;DHT22;11910;52.086;21.066;2023-04-01T01:53:07;9.40;99.90
23475;DHT22;11910;52.086;21.066;2023-04-01T01:55:36;9.50;99.90
23475;DHT22;11910;52.086;21.066;2023-04-01T01:58:13;9.50;99.90
23475;DHT22;11910;52.086;21.066;2023-04-01T02:00:41;9.50;99.90
23475;DHT22;11910;52.086;21.066;2023-04-01T02:03:08;9.60;99.90
23475;DHT22;11910;52.086;21.066;2023-04-01T02:05:35;9.60;99.90
23475;DHT22;11910;52.086;21.066;2023-04-01T02:08:14;9.60;99.90
23475;DHT22;11910;52.086;21.066;2023-04-01T02:10:46;9.70;99.90
23475;DHT22;11910;52.086;21.066;2023-04-01T02:13:19;9.80;99.90
23475;DHT22;11910;52.086;21.066;2023-04-01T02:15:48;9.80;99.90
23475;DHT22;11910;52.086;21.066;2023-04-01T02:18:15;9.80;99.90
23475;DHT22;11910;52.086;21.066;2023-04-01T02:20:42;9.80;99.90
23475;DHT22;11910;52.086;21.066;2023-04-01T02:23:10;9.80;99.90
23475;DHT22;11910;52.086;21.066;2023-04-01T02:25:37;9.80;99.90
23475;DHT22;11910;52.086;21.066;2023-04-01T02:28:05;9.80;99.90
23475;DHT22;11910;52.086;21.066;2023-04-01T02:30:34;9.60;99.90
23475;DHT22;11910;52.086;21.066;2023-04-01T02:33:01;9.60;99.90
23475;DHT22;11910;52.086;21.066;2023-04-01T02:35:27;9.50;99.90
23475;DHT22;11910;52.086;21.066;2023-04-01T02:37:54;9.50;99.90
23475;DHT22;11910;52.086;21.066;2023-04-01T02:40:20;9.50;99.90
23475;DHT22;11910;52.086;21.066;2023-04-01T02:42:46;9.40;99.90
23475;DHT22;11910;52.086;21.066;2023-04-01T02:45:12;9.30;99.90
23475;DHT22;11910;52.086;21.066;2023-04-01T02:47:38;9.30;99.90
23475;DHT22;11910;52.086;21.066;2023-04-01T02:50:04;9.20;99.90
23475;DHT22;11910;52.086;21.066;2023-04-01T02:52:30;9.10;99.90
23475;DHT22;11910;52.086;21.066;2023-04-01T02:54:56;9.10;99.90
23475;DHT22;11910;52.086;21.066;2023-04-01T02:57:23;9.00;99.90
23475;DHT22;11910;52.086;21.066;2023-04-01T02:59:48;8.90;99.90
23475;DHT22;11910;52.086;21.066;2023-04-01T03:02:14;8.80;99.90
23475;DHT22;11910;52.086;21.066;2023-04-01T03:04:40;8.80;99.90
23475;DHT22;11910;52.086;21.066;2023-04-01T03:07:06;8.70;99.90
23475;DHT22;11910;52.086;21.066;2023-04-01T03:09:32;8.60;99.90
23475;DHT22;11910;52.086;21.066;2023-04-01T03:11:58;8.50;99.90
23475;DHT22;11910;52.086;21.066;2023-04-01T03:14:23;8.50;99.90
23475;DHT22;11910;52.086;21.066;2023-04-01T03:16:49;8.30;99.90
23475;DHT22;11910;52.086;21.066;2023-04-01T03:19:14;8.30;99.90
23475;DHT22;11910;52.086;21.066;2023-04-01T03:21:40;8.30;99.90
23475;DHT22;11910;52.086;21.066;2023-04-01T03:24:07;8.30;99.90
23475;DHT22;11910;52.086;21.066;2023-04-01T03:26:33;8.40;99.90
23475;DHT22;11910;52.086;21.066;2023-04-01T03:28:59;8.50;99.90
23475;DHT22;11910;52.086;21.066;2023-04-01T03:31:25;8.50;99.90
23475;DHT22;11910;52.086;21.066;2023-04-01T03:34:27;8.50;99.90
23475;DHT22;11910;52.086;21.066;2023-04-01T03:36:53;8.50;99.90
23475;DHT22;11910;52.086;21.066;2023-04-01T03:39:19;8.50;99.90
23475;DHT22;11910;52.086;21.066;2023-04-01T03:41:45;8.40;99.90
23475;DHT22;11910;52.086;21.066;2023-04-01T03:44:11;8.40;99.90
23475;DHT22;11910;52.086;21.066;2023-04-01T03:46:37;8.40;99.90
23475;DHT22;11910;52.086;21.066;2023-04-01T03:49:05;8.40;99.90
23475;DHT22;11910;52.086;21.066;2023-04-01T03:51:40;8.40;99.90
23475;DHT22;11910;52.086;21.066;2023-04-01T03:54:06;8.50;99.90
23475;DHT22;11910;52.086;21.066;2023-04-01T03:56:32;8.50;99.90
23475;DHT22;11910;52.086;21.066;2023-04-01T03:58:58;8.50;99.90
23475;DHT22;11910;52.086;21.066;2023-04-01T04:01:26;8.60;99.90
23475;DHT22;11910;52.086;21.066;2023-04-01T04:03:52;8.50;99.90
23475;DHT22;11910;52.086;21.066;2023-04-01T04:06:19;8.60;99.90
23475;DHT22;11910;52.086;21.066;2023-04-01T04:08:44;8.60;99.90
23475;DHT22;11910;52.086;21.066;2023-04-01T04:11:10;8.60;99.90
23475;DHT22;11910;52.086;21.066;2023-04-01T04:13:36;8.70;99.90
23475;DHT22;11910;52.086;21.066;2023-04-01T04:16:03;8.60;99.90
23475;DHT22;11910;52.086;21.066;2023-04-01T04:18:29;8.80;99.90
23475;DHT22;11910;52.086;21.066;2023-04-01T04:20:54;8.80;99.90
23475;DHT22;11910;52.086;21.066;2023-04-01T04:23:21;8.80;99.90
23475;DHT22;11910;52.086;21.066;2023-04-01T04:26:13;8.80;99.90
23475;DHT22;11910;52.086;21.066;2023-04-01T04:28:39;8.90;99.90
23475;DHT22;11910;52.086;21.066;2023-04-01T04:31:06;8.90;99.90
23475;DHT22;11910;52.086;21.066;2023-04-01T04:33:32;8.90;99.90
23475;DHT22;11910;52.086;21.066;2023-04-01T04:35:58;9.00;99.90
23475;DHT22;11910;52.086;21.066;2023-04-01T04:38:25;9.10;99.90
23475;DHT22;11910;52.086;21.066;2023-04-01T04:40:51;9.10;99.90
23475;DHT22;11910;52.086;21.066;2023-04-01T04:43:17;9.10;99.90
23475;DHT22;11910;52.086;21.066;2023-04-01T04:45:43;9.20;99.90
23475;DHT22;11910;52.086;21.066;2023-04-01T04:48:10;9.10;99.90
23475;DHT22;11910;52.086;21.066;2023-04-01T04:50:36;9.20;99.90
23475;DHT22;11910;52.086;21.066;2023-04-01T04:53:02;9.20;99.90
23475;DHT22;11910;52.086;21.066;2023-04-01T04:55:28;9.20;99.90
23475;DHT22;11910;52.086;21.066;2023-04-01T04:57:53;9.20;99.90
23475;DHT22;11910;52.086;21.066;2023-04-01T05:00:19;9.20;99.90
23475;DHT22;11910;52.086;21.066;2023-04-01T05:02:44;9.20;99.90
23475;DHT22;11910;52.086;21.066;2023-04-01T05:05:10;9.20;99.90
23475;DHT22;11910;52.086;21.066;2023-04-01T05:07:36;9.30;99.90
23475;DHT22;11910;52.086;21.066;2023-04-01T05:10:02;9.40;99.90
23475;DHT22;11910;52.086;21.066;2023-04-01T05:12:27;9.50;99.90
23475;DHT22;11910;52.086;21.066;2023-04-01T05:14:53;9.60;99.90
23475;DHT22;11910;52.086;21.066;2023-04-01T05:17:19;9.60;99.90
23475;DHT22;11910;52.086;21.066;2023-04-01T05:19:44;9.70;99.90
23475;DHT22;11910;52.086;21.066;2023-04-01T05:22:10;9.80;99.90
23475;DHT22;11910;52.086;21.066;2023-04-01T05:24:35;9.80;99.90
23475;DHT22;11910;52.086;21.066;2023-04-01T05:27:01;9.90;99.90
23475;DHT22;11910;52.086;21.066;2023-04-01T05:29:27;10.00;99.90
23475;DHT22;11910;52.086;21.066;2023-04-01T05:31:53;10.00;99.90
23475;DHT22;11910;52.086;21.066;2023-04-01T05:34:19;10.10;99.90
23475;DHT22;11910;52.086;21.066;2023-04-01T05:36:44;10.10;99.90
23475;DHT22;11910;52.086;21.066;2023-04-01T05:39:10;10.10;99.90
23475;DHT22;11910;52.086;21.066;2023-04-01T05:41:37;10.10;99.90
23475;DHT22;11910;52.086;21.066;2023-04-01T05:44:03;10.20;99.90
23475;DHT22;11910;52.086;21.066;2023-04-01T05:46:28;10.20;99.90
23475;DHT22;11910;52.086;21.066;2023-04-01T05:48:54;10.30;99.90
23475;DHT22;11910;52.086;21.066;2023-04-01T05:51:20;10.30;99.90
23475;DHT22;11910;52.086;21.066;2023-04-01T05:53:46;10.30;99.90
23475;DHT22;11910;52.086;21.066;2023-04-01T05:56:11;10.30;99.90
23475;DHT22;11910;52.086;21.066;2023-04-01T05:58:37;10.30;99.90
23475;DHT22;11910;52.086;21.066;2023-04-01T06:01:05;10.40;99.90
23475;DHT22;11910;52.086;21.066;2023-04-01T06:03:32;10.40;99.90
23475;DHT22;11910;52.086;21.066;2023-04-01T06:05:57;10.50;99.90
23475;DHT22;11910;52.086;21.066;2023-04-01T06:08:24;10.50;99.90
23475;DHT22;11910;52.086;21.066;2023-04-01T06:25:02;10.80;99.90
23475;DHT22;11910;52.086;21.066;2023-04-01T06:30:32;10.90;99.90
23475;DHT22;11910;52.086;21.066;2023-04-01T06:39:28;10.90;99.90
23475;DHT22;11910;52.086;21.066;2023-04-01T06:44:35;11.10;99.90
23475;DHT22;11910;52.086;21.066;2023-04-01T06:47:36;11.10;99.90
23475;DHT22;11910;52.086;21.066;2023-04-01T06:58:26;11.20;99.90
23475;DHT22;11910;52.086;21.066;2023-04-01T07:01:01;11.30;99.90
23475;DHT22;11910;52.086;21.066;2023-04-01T07:03:34;11.30;99.90
23475;DHT22;11910;52.086;21.066;2023-04-01T07:06:50;11.30;99.90
23475;DHT22;11910;52.086;21.066;2023-04-01T07:09:28;11.40;99.90
23475;DHT22;11910;52.086;21.066;2023-04-01T07:12:00;11.40;99.90
23475;DHT22;11910;52.086;21.066;2023-04-01T07:14:36;11.40;99.90
23475;DHT22;11910;52.086;21.066;2023-04-01T07:17:18;11.40;99.90
23475;DHT22;11910;52.086;21.066;2023-04-01T07:19:57;11.40;99.90
23475;DHT22;11910;52.086;21.066;2023-04-01T07:22:51;11.40;99.90
23475;DHT22;11910;52.086;21.066;2023-04-01T07:25:24;11.30;99.90
23475;DHT22;11910;52.086;21.066;2023-04-01T07:27:53;11.30;99.90
23475;DHT22;11910;52.086;21.066;2023-04-01T07:30:23;11.30;99.90
23475;DHT22;11910;52.086;21.066;2023-04-01T07:36:08;11.40;99.90
23475;DHT22;11910;52.086;21.066;2023-04-01T07:47:28;12.20;99.90
23475;DHT22;11910;52.086;21.066;2023-04-01T07:50:14;12.40;99.90
23475;DHT22;11910;52.086;21.066;2023-04-01T07:58:39;12.50;99.90
23475;DHT22;11910;52.086;21.066;2023-04-01T08:07:02;12.20;99.90
23475;DHT22;11910;52.086;21.066;2023-04-01T08:12:48;11.90;99.90
23475;DHT22;11910;52.086;21.066;2023-04-01T08:15:28;11.80;99.90
23475;DHT22;11910;52.086;21.066;2023-04-01T08:20:56;11.70;99.90
23475;DHT22;11910;52.086;21.066;2023-04-01T08:29:00;11.80;99.90
23475;DHT22;11910;52.086;21.066;2023-04-01T08:34:27;11.80;99.90
23475;DHT22;11910;52.086;21.066;2023-04-01T08:37:11;11.90;99.90
23475;DHT22;11910;52.086;21.066;2023-04-01T08:39:58;11.80;99.90
23475;DHT22;11910;52.086;21.066;2023-04-01T08:42:41;11.80;99.90
23475;DHT22;11910;52.086;21.066;2023-04-01T08:45:28;11.90;99.90
23475;DHT22;11910;52.086;21.066;2023-04-01T08:53:39;12.50;99.90
23475;DHT22;11910;52.086;21.066;2023-04-01T09:10:55;13.00;99.90
23475;DHT22;11910;52.086;21.066;2023-04-01T09:19:11;13.60;99.90
23475;DHT22;11910;52.086;21.066;2023-04-01T09:24:35;13.20;99.90
23475;DHT22;11910;52.086;21.066;2023-04-01T09:27:29;12.90;99.90
23475;DHT22;11910;52.086;21.066;2023-04-01T09:35:55;12.30;99.90
23475;DHT22;11910;52.086;21.066;2023-04-01T09:38:57;12.30;99.90
23475;DHT22;11910;52.086;21.066;2023-04-01T10:05:57;11.80;99.90
23475;DHT22;11910;52.086;21.066;2023-04-01T10:08:45;11.60;99.90
23475;DHT22;11910;52.086;21.066;2023-04-01T10:18:11;11.50;99.90
23475;DHT22;11910;52.086;21.066;2023-04-01T10:36:56;11.40;99.90
23475;DHT22;11910;52.086;21.066;2023-04-01T10:42:19;11.50;99.90
23475;DHT22;11910;52.086;21.066;2023-04-01T10:56:56;11.60;99.90
23475;DHT22;11910;52.086;21.066;2023-04-01T11:11:17;12.00;99.90
23475;DHT22;11910;52.086;21.066;2023-04-01T11:14:36;12.00;99.90
23475;DHT22;11910;52.086;21.066;2023-04-01T11:34:09;11.90;99.90
23475;DHT22;11910;52.086;21.066;2023-04-01T11:40:19;11.80;99.90
23475;DHT22;11910;52.086;21.066;2023-04-01T12:31:52;13.00;99.90
23475;DHT22;11910;52.086;21.066;2023-04-01T12:37:35;13.10;99.90
23475;DHT22;11910;52.086;21.066;2023-04-01T12:40:25;13.00;99.90
23475;DHT22;11910;52.086;21.066;2023-04-01T12:45:48;13.10;99.90
23475;DHT22;11910;52.086;21.066;2023-04-01T12:48:37;13.20;99.90
23475;DHT22;11910;52.086;21.066;2023-04-01T12:54:24;13.60;99.90
23475;DHT22;11910;52.086;21.066;2023-04-01T13:05:23;15.00;99.90
23475;DHT22;11910;52.086;21.066;2023-04-01T13:08:06;15.00;99.90
23475;DHT22;11910;52.086;21.066;2023-04-01T13:18:45;14.80;99.90
23475;DHT22;11910;52.086;21.066;2023-04-01T13:23:52;14.40;99.90
23475;DHT22;11910;52.086;21.066;2023-04-01T13:29:15;14.20;99.90
23475;DHT22;11910;52.086;21.066;2023-04-01T13:42:37;13.80;99.90
23475;DHT22;11910;52.086;21.066;2023-04-01T13:56:07;18.50;94.20
23475;DHT22;11910;52.086;21.066;2023-04-01T14:05:02;18.40;91.70
23475;DHT22;11910;52.086;21.066;2023-04-01T14:12:28;16.10;93.90
23475;DHT22;11910;52.086;21.066;2023-04-01T14:15:14;15.60;95.10
23475;DHT22;11910;52.086;21.066;2023-04-01T14:34:54;13.60;99.90
23475;DHT22;11910;52.086;21.066;2023-04-01T14:37:40;13.50;99.90
23475;DHT22;11910;52.086;21.066;2023-04-01T14:48:53;13.40;99.90
23475;DHT22;11910;52.086;21.066;2023-04-01T14:54:04;13.20;99.90
23475;DHT22;11910;52.086;21.066;2023-04-01T14:59:07;13.20;99.90
23475;DHT22;11910;52.086;21.066;2023-04-01T15:02:25;13.10;99.90
23475;DHT22;11910;52.086;21.066;2023-04-01T15:07:21;13.00;99.90
23475;DHT22;11910;52.086;21.066;2023-04-01T15:12:50;12.70;99.90
23475;DHT22;11910;52.086;21.066;2023-04-01T15:24:26;12.30;99.90
23475;DHT22;11910;52.086;21.066;2023-04-01T15:44:36;11.60;99.90
23475;DHT22;11910;52.086;21.066;2023-04-01T15:50:21;11.40;99.90
23475;DHT22;11910;52.086;21.066;2023-04-01T15:58:19;11.30;99.90
23475;DHT22;11910;52.086;21.066;2023-04-01T16:03:29;11.20;99.90
23475;DHT22;11910;52.086;21.066;2023-04-01T16:11:53;11.10;99.90
23475;DHT22;11910;52.086;21.066;2023-04-01T16:17:36;11.00;99.90
23475;DHT22;11910;52.086;21.066;2023-04-01T16:22:52;10.90;99.90
23475;DHT22;11910;52.086;21.066;2023-04-01T16:25:29;10.90;99.90
23475;DHT22;11910;52.086;21.066;2023-04-01T16:30:46;10.80;99.90
23475;DHT22;11910;52.086;21.066;2023-04-01T16:36:24;10.80;99.90
23475;DHT22;11910;52.086;21.066;2023-04-01T16:41:33;10.80;99.90
23475;DHT22;11910;52.086;21.066;2023-04-01T16:44:24;10.80;99.90
23475;DHT22;11910;52.086;21.066;2023-04-01T16:46:56;10.80;99.90
23475;DHT22;11910;52.086;21.066;2023-04-01T16:52:14;10.70;99.90
23475;DHT22;11910;52.086;21.066;2023-04-01T17:02:43;10.60;99.90
23475;DHT22;11910;52.086;21.066;2023-04-01T17:05:12;10.50;99.90
23475;DHT22;11910;52.086;21.066;2023-04-01T17:10:28;10.40;99.90
23475;DHT22;11910;52.086;21.066;2023-04-01T17:17:13;10.20;99.90
23475;DHT22;11910;52.086;21.066;2023-04-01T17:19:56;10.10;99.90
23475;DHT22;11910;52.086;21.066;2023-04-01T17:31:02;10.00;99.90
23475;DHT22;11910;52.086;21.066;2023-04-01T17:36:41;10.00;99.90
23475;DHT22;11910;52.086;21.066;2023-04-01T17:47:13;10.00;99.90
23475;DHT22;11910;52.086;21.066;2023-04-01T17:49:56;10.00;99.90
23475;DHT22;11910;52.086;21.066;2023-04-01T17:55:20;10.00;99.90
23475;DHT22;11910;52.086;21.066;2023-04-01T17:57:56;10.00;99.90
23475;DHT22;11910;52.086;21.066;2023-04-01T18:08:57;10.00;99.90
23475;DHT22;11910;52.086;21.066;2023-04-01T18:14:31;10.00;99.90
23475;DHT22;11910;52.086;21.066;2023-04-01T18:20:02;10.00;99.90
23475;DHT22;11910;52.086;21.066;2023-04-01T18:22:43;10.00;99.90
23475;DHT22;11910;52.086;21.066;2023-04-01T18:25:16;10.00;99.90
23475;DHT22;11910;52.086;21.066;2023-04-01T18:27:47;10.00;99.90
23475;DHT22;11910;52.086;21.066;2023-04-01T18:30:28;10.00;99.90
23475;DHT22;11910;52.086;21.066;2023-04-01T18:36:15;10.00;99.90
23475;DHT22;11910;52.086;21.066;2023-04-01T18:38:53;9.90;99.90
23475;DHT22;11910;52.086;21.066;2023-04-01T18:49:21;10.00;99.90
23475;DHT22;11910;52.086;21.066;2023-04-01T18:51:58;10.00;99.90
23475;DHT22;11910;52.086;21.066;2023-04-01T18:54:30;10.00;99.90
23475;DHT22;11910;52.086;21.066;2023-04-01T18:59:45;10.00;99.90
23475;DHT22;11910;52.086;21.066;2023-04-01T19:10:56;9.90;99.90
23475;DHT22;11910;52.086;21.066;2023-04-01T19:13:36;9.90;99.90
23475;DHT22;11910;52.086;21.066;2023-04-01T19:21:56;9.90;99.90
23475;DHT22;11910;52.086;21.066;2023-04-01T19:24:32;9.90;99.90
23475;DHT22;11910;52.086;21.066;2023-04-01T19:27:21;9.80;99.90
23475;DHT22;11910;52.086;21.066;2023-04-01T19:33:19;9.80;99.90
23475;DHT22;11910;52.086;21.066;2023-04-01T19:41:37;9.80;99.90
23475;DHT22;11910;52.086;21.066;2023-04-01T19:44:37;9.80;99.90
23475;DHT22;11910;52.086;21.066;2023-04-01T19:52:46;9.70;99.90
23475;DHT22;11910;52.086;21.066;2023-04-01T19:58:31;9.70;99.90
23475;DHT22;11910;52.086;21.066;2023-04-01T20:01:00;9.70;99.90
23475;DHT22;11910;52.086;21.066;2023-04-01T20:11:35;9.70;99.90
23475;DHT22;11910;52.086;21.066;2023-04-01T20:19:44;9.60;99.90
23475;DHT22;11910;52.086;21.066;2023-04-01T20:22:34;9.60;99.90
23475;DHT22;11910;52.086;21.066;2023-04-01T20:25:24;9.60;99.90
23475;DHT22;11910;52.086;21.066;2023-04-01T20:27:56;9.60;99.90
23475;DHT22;11910;52.086;21.066;2023-04-01T20:55:56;9.50;99.90
23475;DHT22;11910;52.086;21.066;2023-04-01T21:01:15;9.40;99.90
23475;DHT22;11910;52.086;21.066;2023-04-01T21:25:39;9.20;99.90
23475;DHT22;11910;52.086;21.066;2023-04-01T21:28:23;9.20;99.90
23475;DHT22;11910;52.086;21.066;2023-04-01T21:31:25;9.20;99.90
23475;DHT22;11910;52.086;21.066;2023-04-01T21:34:25;9.20;99.90
23475;DHT22;11910;52.086;21.066;2023-04-01T21:37:00;9.20;99.90
23475;DHT22;11910;52.086;21.066;2023-04-01T21:45:31;9.20;99.90
23475;DHT22;11910;52.086;21.066;2023-04-01T21:48:22;9.20;99.90
23475;DHT22;11910;52.086;21.066;2023-04-01T21:51:19;9.20;99.90
23475;DHT22;11910;52.086;21.066;2023-04-01T21:54:00;9.20;99.90
23475;DHT22;11910;52.086;21.066;2023-04-01T22:02:15;9.30;99.90
23475;DHT22;11910;52.086;21.066;2023-04-01T22:07:49;9.30;99.90
23475;DHT22;11910;52.086;21.066;2023-04-01T22:10:51;9.20;99.90
23475;DHT22;11910;52.086;21.066;2023-04-01T22:18:52;9.20;99.90
23475;DHT22;11910;52.086;21.066;2023-04-01T22:23:58;9.20;99.90
23475;DHT22;11910;52.086;21.066;2023-04-01T22:27:03;9.20;99.90
23475;DHT22;11910;52.086;21.066;2023-04-01T22:32:11;9.20;99.90
23475;DHT22;11910;52.086;21.066;2023-04-01T22:43:38;9.10;99.90
23475;DHT22;11910;52.086;21.066;2023-04-01T22:48:44;9.10;99.90
23475;DHT22;11910;52.086;21.066;2023-04-01T22:51:26;9.10;99.90
23475;DHT22;11910;52.086;21.066;2023-04-01T22:56:57;9.10;99.90
23475;DHT22;11910;52.086;21.066;2023-04-01T23:02:15;9.00;99.90
23475;DHT22;11910;52.086;21.066;2023-04-01T23:04:43;9.00;99.90
23475;DHT22;11910;52.086;21.066;2023-04-01T23:09:58;9.00;99.90
23475;DHT22;11910;52.086;21.066;2023-04-01T23:12:27;9.00;99.90
23475;DHT22;11910;52.086;21.066;2023-04-01T23:14:57;9.00;99.90
23475;DHT22;11910;52.086;21.066;2023-04-01T23:25:54;8.90;99.90
23475;DHT22;11910;52.086;21.066;2023-04-01T23:28:32;8.90;99.90
23475;DHT22;11910;52.086;21.066;2023-04-01T23:30:59;8.80;99.90
23475;DHT22;11910;52.086;21.066;2023-04-01T23:33:29;8.80;99.90
23475;DHT22;11910;52.086;21.066;2023-04-01T23:38:40;8.80;99.90
23475;DHT22;11910;52.086;21.066;2023-04-01T23:41:27;8.90;99.90
23475;DHT22;11910;52.086;21.066;2023-04-01T23:44:11;8.80;99.90
23475;DHT22;11910;52.086;21.066;2023-04-01T23:46:39;8.80;99.90
23475;DHT22;11910;52.086;21.066;2023-04-01T23:49:12;8.70;99.90
23475;DHT22;11910;52.086;21.066;2023-04-01T23:51:50;8.80;99.90
23475;DHT22;11910;52.086;21.066;2023-04-01T23:54:24;8.80;99.90
23475;DHT22;11910;52.086;21.066;2023-04-01T23:56:55;8.80;99.90
23475;DHT22;11910;52.086;21.066;2023-04-01T23:59:29;8.80;99.90
